Time;durP1;ratioP1;P1;durP2;ratioP2;P2;SDS_P1;SDS_P2;PMS_P1;PMS_P2;Temp;Humidity;BMP_temperature;BMP_pressure;BME280_temperature;BME280_humidity;BME280_pressure;Samples;Min_cycle;Max_cycle;Signal;HPM_P1;HPM_P2
2023/07/23 00:00:30;;;;;;;11.75;7.55;;;15.50;99.90;;;;;;5031911;28;20025;-90
2023/07/23 00:02:55;;;;;;;16.50;7.22;;;15.50;99.90;;;;;;5035064;28;20604;-90
2023/07/23 00:05:23;;;;;;;10.93;6.95;;;15.60;99.90;;;;;;5036231;28;20039;-91
2023/07/23 00:07:50;;;;;;;11.23;7.45;;;15.60;99.90;;;;;;5033143;28;20481;-91
2023/07/23 00:10:15;;;;;;;12.88;7.85;;;15.50;99.90;;;;;;5020158;28;20052;-89
2023/07/23 00:12:41;;;;;;;11.93;8.35;;;15.50;99.90;;;;;;5034707;28;20076;-91
2023/07/23 00:15:07;;;;;;;12.45;8.00;;;15.60;99.90;;;;;;5034367;28;20036;-90
2023/07/23 00:17:32;;;;;;;12.45;7.88;;;15.60;99.90;;;;;;5035123;28;20037;-90
2023/07/23 00:19:58;;;;;;;12.60;8.70;;;15.60;99.90;;;;;;5026895;28;20040;-89
2023/07/23 00:22:25;;;;;;;12.07;7.95;;;15.60;99.90;;;;;;4994877;28;1153656;-90
2023/07/23 00:24:56;;;;;;;10.20;7.38;;;15.60;99.90;;;;;;5033160;28;20151;-91
2023/07/23 00:27:22;;;;;;;14.30;8.00;;;15.60;99.90;;;;;;5032700;28;20492;-91
2023/07/23 00:29:47;;;;;;;12.45;7.70;;;15.60;99.90;;;;;;5033002;28;20065;-90
2023/07/23 00:32:13;;;;;;;12.95;8.38;;;15.60;99.90;;;;;;5028339;28;20033;-91
2023/07/23 00:34:38;;;;;;;14.40;8.55;;;15.60;99.90;;;;;;5034164;28;20473;-90
2023/07/23 00:37:04;;;;;;;13.13;7.72;;;15.60;99.90;;;;;;5034047;28;20036;-91
2023/07/23 00:39:30;;;;;;;15.52;8.32;;;15.60;99.90;;;;;;5030567;28;20025;-91
2023/07/23 00:41:56;;;;;;;12.05;7.28;;;15.60;99.90;;;;;;5031030;28;20064;-90
2023/07/23 00:44:22;;;;;;;13.07;8.38;;;15.60;99.90;;;;;;5029438;28;20025;-89
2023/07/23 00:46:47;;;;;;;10.77;7.38;;;15.60;99.90;;;;;;5034917;28;20024;-89
2023/07/23 00:49:13;;;;;;;12.07;7.65;;;15.60;99.90;;;;;;5032974;28;20025;-89
2023/07/23 00:51:40;;;;;;;12.45;7.30;;;15.50;99.90;;;;;;5030749;28;20135;-90
2023/07/23 00:54:06;;;;;;;11.48;6.97;;;15.60;99.90;;;;;;5028408;28;20066;-90
2023/07/23 00:56:37;;;;;;;12.05;7.25;;;15.60;99.90;;;;;;5032271;28;20067;-91
2023/07/23 00:59:02;;;;;;;12.52;7.60;;;15.50;99.90;;;;;;5039984;28;20053;-90
2023/07/23 01:01:30;;;;;;;11.15;7.75;;;15.50;99.90;;;;;;5034725;28;20056;-90
2023/07/23 01:03:56;;;;;;;12.63;7.90;;;15.60;99.90;;;;;;5039001;28;20478;-91
2023/07/23 01:06:23;;;;;;;12.70;7.80;;;15.50;99.90;;;;;;5033401;28;20025;-91
2023/07/23 01:08:49;;;;;;;10.52;6.97;;;15.60;99.90;;;;;;5033290;28;20022;-90
2023/07/23 01:11:16;;;;;;;11.15;7.10;;;15.60;99.90;;;;;;5034375;28;20190;-91
2023/07/23 01:13:43;;;;;;;10.68;6.65;;;15.60;99.90;;;;;;5033268;28;20441;-90
2023/07/23 01:16:10;;;;;;;12.30;6.85;;;15.60;99.90;;;;;;5030611;28;20037;-91
2023/07/23 01:18:39;;;;;;;14.02;7.35;;;15.60;99.90;;;;;;5035050;28;20128;-90
2023/07/23 01:21:05;;;;;;;9.75;6.80;;;15.60;99.90;;;;;;5032914;28;20021;-90
2023/07/23 01:23:33;;;;;;;9.57;6.18;;;15.60;99.90;;;;;;5024267;28;20554;-91
2023/07/23 01:25:59;;;;;;;10.85;6.35;;;15.60;99.90;;;;;;5030989;28;20039;-90
2023/07/23 01:28:25;;;;;;;9.88;6.50;;;15.60;99.90;;;;;;5025759;28;20376;-90
2023/07/23 01:30:54;;;;;;;12.93;6.88;;;15.60;99.90;;;;;;5031114;28;20044;-91
2023/07/23 01:33:20;;;;;;;11.50;7.28;;;15.60;99.90;;;;;;5016989;28;20068;-92
2023/07/23 01:35:46;;;;;;;10.75;6.95;;;15.60;99.90;;;;;;5027873;28;20488;-89
2023/07/23 01:38:13;;;;;;;10.35;6.53;;;15.60;99.90;;;;;;5031059;28;20025;-90
2023/07/23 01:40:40;;;;;;;9.82;6.45;;;15.60;99.90;;;;;;5034436;28;20040;-91
2023/07/23 01:43:06;;;;;;;7.97;6.07;;;15.60;99.90;;;;;;5023454;28;20025;-89
2023/07/23 01:45:32;;;;;;;12.45;6.22;;;15.60;99.90;;;;;;5029766;28;20028;-90
2023/07/23 01:47:57;;;;;;;8.93;6.05;;;15.60;99.90;;;;;;5034373;28;20029;-89
2023/07/23 01:50:23;;;;;;;11.80;6.40;;;15.60;99.90;;;;;;5026428;28;20029;-91
2023/07/23 01:52:49;;;;;;;8.80;5.75;;;15.60;99.90;;;;;;5032239;28;20443;-90
2023/07/23 01:55:14;;;;;;;10.10;6.30;;;15.60;99.90;;;;;;5030807;28;20126;-91
2023/07/23 01:57:40;;;;;;;8.02;5.47;;;15.60;99.90;;;;;;5028199;28;20040;-91
2023/07/23 02:00:07;;;;;;;12.68;5.57;;;15.60;99.90;;;;;;5029359;28;20034;-90
2023/07/23 02:02:33;;;;;;;12.27;6.05;;;15.60;99.90;;;;;;5031966;28;20077;-90
2023/07/23 02:04:59;;;;;;;13.27;6.15;;;15.50;99.90;;;;;;5024051;28;20430;-90
2023/07/23 02:07:24;;;;;;;7.35;5.18;;;15.60;99.90;;;;;;5035123;28;20036;-90
2023/07/23 02:09:50;;;;;;;9.73;5.72;;;15.50;99.90;;;;;;5035077;28;20127;-90
2023/07/23 02:12:15;;;;;;;11.00;5.40;;;15.60;99.90;;;;;;5037110;28;20163;-90
2023/07/23 02:14:41;;;;;;;10.80;5.78;;;15.60;99.90;;;;;;5033085;28;20021;-91
2023/07/23 02:17:06;;;;;;;9.80;5.57;;;15.60;99.90;;;;;;5030050;28;20045;-91
2023/07/23 02:19:32;;;;;;;11.60;5.65;;;15.60;99.90;;;;;;5035139;28;20022;-91
2023/07/23 02:21:58;;;;;;;10.05;6.25;;;15.60;99.90;;;;;;5032649;28;20037;-91
2023/07/23 02:24:23;;;;;;;17.00;6.20;;;15.70;99.90;;;;;;5014643;28;20443;-90
2023/07/23 02:26:49;;;;;;;13.65;6.25;;;15.60;99.90;;;;;;5012325;28;20482;-89
2023/07/23 02:29:14;;;;;;;9.88;6.43;;;15.60;99.90;;;;;;5011345;28;20446;-90
2023/07/23 02:31:41;;;;;;;10.00;6.43;;;15.60;99.90;;;;;;5021997;28;20037;-90
2023/07/23 02:34:07;;;;;;;10.80;6.30;;;15.60;99.90;;;;;;5014888;28;20026;-90
2023/07/23 02:36:33;;;;;;;9.20;6.25;;;15.60;99.90;;;;;;5010985;28;20060;-90
2023/07/23 02:38:59;;;;;;;11.48;6.70;;;15.60;99.90;;;;;;5011914;28;20394;-90
2023/07/23 02:41:24;;;;;;;14.68;6.90;;;15.70;99.90;;;;;;5012032;28;20035;-90
2023/07/23 02:43:50;;;;;;;12.35;7.38;;;15.60;99.90;;;;;;5015275;28;20026;-90
2023/07/23 02:46:15;;;;;;;12.18;6.88;;;15.60;99.90;;;;;;5010635;28;20105;-89
2023/07/23 02:48:41;;;;;;;10.30;6.72;;;15.60;99.90;;;;;;5015172;28;20026;-90
2023/07/23 02:51:06;;;;;;;10.80;6.38;;;15.60;99.90;;;;;;5012040;28;20034;-90
2023/07/23 02:53:32;;;;;;;13.30;6.40;;;15.60;99.90;;;;;;5017972;28;20030;-89
2023/07/23 02:55:57;;;;;;;12.10;7.50;;;15.60;99.90;;;;;;5021524;28;20035;-89
2023/07/23 02:58:23;;;;;;;13.23;7.22;;;15.60;99.90;;;;;;5014807;28;20026;-90
2023/07/23 03:00:49;;;;;;;11.30;6.28;;;15.70;99.90;;;;;;5016730;28;20522;-91
2023/07/23 03:03:15;;;;;;;15.27;6.93;;;15.60;99.90;;;;;;5007870;28;20061;-90
2023/07/23 03:05:45;;;;;;;10.50;6.70;;;15.60;99.90;;;;;;5011527;28;20116;-90
2023/07/23 03:08:10;;;;;;;11.43;6.88;;;15.60;99.90;;;;;;5008975;28;20022;-91
2023/07/23 03:10:36;;;;;;;9.60;7.10;;;15.60;99.90;;;;;;5011713;28;20037;-90
2023/07/23 03:13:02;;;;;;;11.07;7.13;;;15.70;99.90;;;;;;5015904;28;20040;-90
2023/07/23 03:15:27;;;;;;;9.75;6.70;;;15.70;99.90;;;;;;5014871;28;20398;-90
2023/07/23 03:17:53;;;;;;;10.13;6.18;;;15.70;99.90;;;;;;5008494;28;20025;-90
2023/07/23 03:20:18;;;;;;;10.35;6.90;;;15.70;99.90;;;;;;5014590;28;20040;-90
2023/07/23 03:22:44;;;;;;;8.65;5.82;;;15.70;99.90;;;;;;5017015;28;21172;-90
2023/07/23 03:25:10;;;;;;;9.82;6.20;;;15.70;99.90;;;;;;5024708;28;20025;-92
2023/07/23 03:27:35;;;;;;;11.73;7.15;;;15.80;99.90;;;;;;5028942;28;20036;-90
2023/07/23 03:30:02;;;;;;;11.02;6.65;;;15.70;99.90;;;;;;5033598;28;20396;-90
2023/07/23 03:32:27;;;;;;;13.88;7.00;;;15.70;99.90;;;;;;5049904;28;20064;-91
2023/07/23 03:34:53;;;;;;;16.88;7.75;;;15.80;99.90;;;;;;5029636;28;20457;-91
2023/07/23 03:37:18;;;;;;;18.67;7.18;;;15.80;99.90;;;;;;5033813;28;20033;-89
2023/07/23 03:39:44;;;;;;;11.07;5.93;;;15.80;99.90;;;;;;5031049;28;20037;-91
2023/07/23 03:42:09;;;;;;;9.48;5.72;;;15.80;99.90;;;;;;5027861;28;20370;-91
2023/07/23 03:44:35;;;;;;;11.70;6.85;;;15.80;99.90;;;;;;5033263;28;20481;-92
2023/07/23 03:47:05;;;;;;;9.65;6.28;;;15.90;99.90;;;;;;5017978;28;20041;-90
2023/07/23 03:49:30;;;;;;;12.48;6.20;;;15.90;99.90;;;;;;5029943;28;20104;-91
2023/07/23 03:51:56;;;;;;;9.48;6.68;;;15.90;99.90;;;;;;5034183;28;20124;-91
2023/07/23 03:54:22;;;;;;;10.80;6.47;;;15.90;99.90;;;;;;5024679;28;20025;-91
2023/07/23 03:56:47;;;;;;;10.00;5.57;;;15.90;99.90;;;;;;5027415;28;20343;-91
2023/07/23 03:59:13;;;;;;;10.52;6.22;;;15.90;99.90;;;;;;5028550;28;20044;-90
2023/07/23 04:01:38;;;;;;;10.75;5.95;;;15.90;99.90;;;;;;5034064;28;20022;-90
2023/07/23 04:04:04;;;;;;;8.38;6.55;;;16.00;99.90;;;;;;5030349;28;20091;-89
2023/07/23 04:06:29;;;;;;;11.73;5.93;;;16.00;99.90;;;;;;5032478;28;20044;-91
2023/07/23 04:08:55;;;;;;;8.88;5.68;;;16.00;99.90;;;;;;5029167;28;20033;-91
2023/07/23 04:11:21;;;;;;;9.10;5.40;;;16.00;99.90;;;;;;5046473;28;20036;-90
2023/07/23 04:13:48;;;;;;;9.63;5.50;;;16.00;99.90;;;;;;5032570;28;20037;-92
2023/07/23 04:16:13;;;;;;;11.07;6.25;;;16.00;99.90;;;;;;5033970;28;20330;-91
2023/07/23 04:18:47;;;;;;;9.90;5.35;;;16.10;99.90;;;;;;5033862;28;20033;-92
2023/07/23 04:21:13;;;;;;;7.95;5.07;;;16.10;99.90;;;;;;5031459;28;20034;-91
2023/07/23 04:23:39;;;;;;;10.85;5.15;;;16.10;99.90;;;;;;5032867;28;20042;-90
2023/07/23 04:26:04;;;;;;;9.23;5.13;;;16.10;99.90;;;;;;5012339;28;20029;-90
2023/07/23 04:28:30;;;;;;;7.22;4.20;;;16.10;99.90;;;;;;5013883;28;20026;-90
2023/07/23 04:30:55;;;;;;;9.63;4.60;;;16.10;99.90;;;;;;5010225;28;20049;-92
2023/07/23 04:33:21;;;;;;;10.88;4.80;;;16.10;99.90;;;;;;5008231;28;20049;-90
2023/07/23 04:35:46;;;;;;;6.03;3.67;;;16.20;99.90;;;;;;5009872;28;20018;-90
2023/07/23 04:38:12;;;;;;;10.40;4.53;;;16.20;99.90;;;;;;5011291;28;20034;-90
2023/07/23 04:40:37;;;;;;;6.47;4.07;;;16.20;99.90;;;;;;5012995;28;20045;-90
2023/07/23 04:43:03;;;;;;;9.55;3.55;;;16.30;99.90;;;;;;5030623;28;20033;-91
2023/07/23 04:45:29;;;;;;;5.03;3.40;;;16.30;99.90;;;;;;5020627;28;20060;-89
2023/07/23 04:47:55;;;;;;;7.45;3.47;;;16.30;99.90;;;;;;5015683;28;20037;-89
2023/07/23 04:50:21;;;;;;;10.07;3.60;;;16.40;99.90;;;;;;5007628;28;20030;-90
2023/07/23 04:52:46;;;;;;;8.63;3.92;;;16.40;99.90;;;;;;5005586;28;20050;-90
2023/07/23 04:55:12;;;;;;;5.72;2.88;;;16.50;99.90;;;;;;5009398;28;20064;-91
2023/07/23 04:57:38;;;;;;;5.30;3.47;;;16.50;99.90;;;;;;5013451;28;20048;-91
2023/07/23 05:00:07;;;;;;;6.10;3.60;;;16.50;99.90;;;;;;5008703;28;20021;-90
2023/07/23 05:02:33;;;;;;;6.68;3.63;;;16.60;99.90;;;;;;5010472;28;20079;-90
2023/07/23 05:04:58;;;;;;;5.43;2.88;;;16.70;99.90;;;;;;5002904;28;20029;-90
2023/07/23 05:07:24;;;;;;;5.55;2.83;;;16.70;99.90;;;;;;5012908;28;20029;-90
2023/07/23 05:09:49;;;;;;;2.95;2.17;;;16.70;99.90;;;;;;5000357;28;20037;-90
2023/07/23 05:12:15;;;;;;;6.65;2.80;;;16.70;99.90;;;;;;5001639;28;20758;-91
2023/07/23 05:14:40;;;;;;;4.57;2.65;;;16.70;99.90;;;;;;5017459;28;20025;-91
2023/07/23 05:17:06;;;;;;;5.82;2.60;;;16.70;99.90;;;;;;5026961;28;20025;-92
2023/07/23 05:19:31;;;;;;;5.35;2.78;;;16.80;99.90;;;;;;5011380;28;20492;-90
2023/07/23 05:21:57;;;;;;;7.28;3.13;;;16.80;99.90;;;;;;5025404;28;20038;-91
2023/07/23 05:24:22;;;;;;;6.15;2.53;;;16.80;99.90;;;;;;5016361;28;20030;-90
2023/07/23 05:26:48;;;;;;;7.25;3.20;;;16.80;99.90;;;;;;5019882;28;20048;-90
2023/07/23 05:29:13;;;;;;;5.70;2.40;;;16.80;99.90;;;;;;5014256;28;20014;-90
2023/07/23 05:31:39;;;;;;;10.10;3.03;;;16.80;99.90;;;;;;5006943;28;20034;-90
2023/07/23 05:34:04;;;;;;;7.03;3.42;;;16.90;99.90;;;;;;5006475;28;20033;-89
2023/07/23 05:36:30;;;;;;;4.85;2.47;;;16.90;99.90;;;;;;5007871;28;20025;-90
2023/07/23 05:38:55;;;;;;;4.45;2.58;;;16.90;99.90;;;;;;5019536;28;20022;-90
2023/07/23 05:41:21;;;;;;;6.30;3.10;;;16.90;99.90;;;;;;5001753;28;20487;-90
2023/07/23 05:43:47;;;;;;;5.78;3.03;;;16.90;99.90;;;;;;5014421;28;20029;-90
2023/07/23 05:46:12;;;;;;;6.25;2.95;;;16.80;99.90;;;;;;5009479;28;20026;-90
2023/07/23 05:48:38;;;;;;;5.10;2.90;;;16.90;99.90;;;;;;5011609;28;20052;-90
2023/07/23 05:51:03;;;;;;;6.03;2.75;;;16.90;99.90;;;;;;5012533;28;20393;-88
2023/07/23 05:53:30;;;;;;;6.00;3.38;;;16.90;99.90;;;;;;5009373;28;20053;-89
2023/07/23 05:55:55;;;;;;;5.43;2.75;;;16.90;99.90;;;;;;5012419;28;20026;-89
2023/07/23 05:58:21;;;;;;;5.68;2.83;;;16.90;99.90;;;;;;5012512;28;20029;-89
2023/07/23 06:00:46;;;;;;;5.35;2.95;;;16.90;99.90;;;;;;5012711;28;20117;-88
2023/07/23 06:03:12;;;;;;;7.50;2.53;;;16.90;99.90;;;;;;5009589;28;20093;-89
2023/07/23 06:05:37;;;;;;;6.55;3.10;;;16.90;99.90;;;;;;5016493;28;20064;-89
2023/07/23 06:08:03;;;;;;;4.88;2.53;;;16.90;99.90;;;;;;5007076;28;20026;-90
2023/07/23 06:10:29;;;;;;;11.25;2.90;;;16.90;99.90;;;;;;5008168;28;20022;-89
2023/07/23 06:12:54;;;;;;;7.88;2.85;;;17.00;99.90;;;;;;4998856;28;20541;-89
2023/07/23 06:15:20;;;;;;;6.20;2.92;;;17.00;99.90;;;;;;5006719;28;20031;-89
2023/07/23 06:17:46;;;;;;;5.38;2.80;;;17.00;99.90;;;;;;5001013;28;20040;-91
2023/07/23 06:20:11;;;;;;;5.63;3.13;;;17.00;99.90;;;;;;5008427;28;20029;-91
2023/07/23 06:22:37;;;;;;;9.73;3.53;;;17.00;99.90;;;;;;5018071;28;20057;-90
2023/07/23 06:25:02;;;;;;;5.07;2.38;;;17.00;99.90;;;;;;5027543;28;20033;-91
2023/07/23 06:27:28;;;;;;;5.90;3.20;;;17.00;99.90;;;;;;5027210;28;20542;-90
2023/07/23 06:29:54;;;;;;;7.13;3.35;;;17.00;99.90;;;;;;5029055;28;20029;-91
2023/07/23 06:32:19;;;;;;;6.65;3.03;;;17.00;99.90;;;;;;5032534;28;20044;-90
2023/07/23 06:34:45;;;;;;;9.93;3.05;;;17.00;99.90;;;;;;5027736;28;20369;-90
2023/07/23 06:37:10;;;;;;;5.28;2.72;;;17.00;99.90;;;;;;5027068;28;20040;-90
2023/07/23 06:39:36;;;;;;;4.72;2.65;;;17.00;99.90;;;;;;5024399;28;20036;-90
2023/07/23 06:42:01;;;;;;;6.65;3.72;;;16.90;99.90;;;;;;5020328;28;20041;-91
2023/07/23 06:44:27;;;;;;;5.18;2.75;;;16.90;99.90;;;;;;5034846;28;20021;-93
2023/07/23 06:46:52;;;;;;;5.97;2.55;;;16.90;99.90;;;;;;5027197;28;20115;-92
2023/07/23 06:49:18;;;;;;;6.35;2.85;;;16.80;99.90;;;;;;5014493;28;20022;-94
2023/07/23 06:51:43;;;;;;;4.78;3.00;;;16.80;99.90;;;;;;5031417;28;20086;-93
2023/07/23 06:54:09;;;;;;;5.95;3.50;;;16.80;99.90;;;;;;5028033;28;20025;-92
2023/07/23 06:56:35;;;;;;;7.85;3.00;;;16.70;99.90;;;;;;5036677;28;20021;-91
2023/07/23 06:59:00;;;;;;;8.20;2.85;;;16.70;99.90;;;;;;5038119;28;20111;-91
2023/07/23 07:01:26;;;;;;;8.35;2.83;;;16.70;99.90;;;;;;5036054;28;20389;-91
2023/07/23 07:03:51;;;;;;;4.70;2.85;;;16.70;99.90;;;;;;5038499;28;20401;-91
2023/07/23 07:06:17;;;;;;;4.97;2.53;;;16.70;99.90;;;;;;5036798;28;20036;-91
2023/07/23 07:08:44;;;;;;;4.90;3.28;;;16.60;99.90;;;;;;5037389;28;20086;-92
2023/07/23 07:11:09;;;;;;;5.53;3.28;;;16.70;99.90;;;;;;5038500;28;20108;-91
2023/07/23 07:13:36;;;;;;;6.85;3.03;;;16.70;99.90;;;;;;5034587;28;20474;-91
2023/07/23 07:16:01;;;;;;;5.63;2.95;;;16.70;99.90;;;;;;5033068;28;20030;-92
2023/07/23 07:18:27;;;;;;;7.03;3.22;;;16.80;99.90;;;;;;5030571;28;20044;-92
2023/07/23 07:21:00;;;;;;;7.13;3.55;;;16.70;99.90;;;;;;5018801;28;20025;-91
2023/07/23 07:23:30;;;;;;;4.72;2.78;;;16.70;99.90;;;;;;5033651;28;20049;-91
2023/07/23 07:26:00;;;;;;;6.20;2.95;;;16.60;99.90;;;;;;5025910;28;20156;-91
2023/07/23 07:28:27;;;;;;;5.82;3.53;;;16.50;99.90;;;;;;5027987;28;20025;-92
2023/07/23 07:30:58;;;;;;;6.03;3.72;;;16.40;99.90;;;;;;5042001;28;20024;-91
2023/07/23 07:33:23;;;;;;;6.85;4.03;;;16.30;99.90;;;;;;5039455;28;20094;-92
2023/07/23 07:35:54;;;;;;;6.65;3.10;;;16.30;99.90;;;;;;5026654;28;20081;-91
2023/07/23 07:38:19;;;;;;;8.00;3.80;;;16.40;99.90;;;;;;5029902;28;20039;-93
2023/07/23 07:40:48;;;;;;;6.63;3.40;;;16.40;99.90;;;;;;5025433;28;20097;-91
2023/07/23 07:43:13;;;;;;;6.80;3.78;;;16.40;99.90;;;;;;5025052;28;20030;-92
2023/07/23 07:45:39;;;;;;;6.80;3.42;;;16.40;99.90;;;;;;5023820;28;20059;-91
2023/07/23 07:48:05;;;;;;;6.72;3.67;;;16.40;99.90;;;;;;5029885;28;20036;-90
2023/07/23 07:50:30;;;;;;;6.65;3.38;;;16.40;99.90;;;;;;5033007;28;20381;-90
2023/07/23 07:52:56;;;;;;;6.63;3.72;;;16.30;99.90;;;;;;5031132;28;20060;-91
2023/07/23 07:55:25;;;;;;;9.68;4.53;;;16.40;99.90;;;;;;5031941;28;20032;-90
2023/07/23 07:57:50;;;;;;;7.68;3.88;;;16.30;99.90;;;;;;5033857;28;20120;-90
2023/07/23 08:00:16;;;;;;;7.22;4.10;;;16.30;99.90;;;;;;5037969;28;20056;-92
2023/07/23 08:02:42;;;;;;;7.47;3.92;;;16.40;99.90;;;;;;5032483;28;20030;-90
2023/07/23 08:05:09;;;;;;;7.85;4.10;;;16.50;99.90;;;;;;5024682;28;20397;-90
2023/07/23 08:07:35;;;;;;;7.75;4.18;;;16.50;99.90;;;;;;5035044;28;20032;-91
2023/07/23 08:10:02;;;;;;;6.30;4.03;;;16.50;99.90;;;;;;5033269;28;20526;-90
2023/07/23 08:12:28;;;;;;;5.75;3.80;;;16.60;99.90;;;;;;5031607;28;20047;-89
2023/07/23 08:14:55;;;;;;;6.05;3.65;;;16.60;99.90;;;;;;5030205;28;20500;-91
2023/07/23 08:17:21;;;;;;;8.30;4.28;;;16.70;99.90;;;;;;5032853;28;20033;-90
2023/07/23 08:19:47;;;;;;;8.55;4.70;;;16.80;99.90;;;;;;5037931;28;20029;-90
2023/07/23 08:22:13;;;;;;;8.07;4.70;;;16.90;99.90;;;;;;5032195;28;20072;-90
2023/07/23 08:24:39;;;;;;;7.13;4.38;;;16.90;99.90;;;;;;5028390;28;20021;-91
2023/07/23 08:27:07;;;;;;;8.00;4.15;;;17.00;99.90;;;;;;5020848;28;20029;-90
2023/07/23 08:29:34;;;;;;;8.50;4.78;;;17.00;99.90;;;;;;5033086;28;20066;-90
2023/07/23 08:32:01;;;;;;;11.07;5.10;;;17.10;99.90;;;;;;5025630;28;20124;-92
2023/07/23 08:34:27;;;;;;;9.43;5.68;;;17.00;99.90;;;;;;5034247;28;20025;-91
2023/07/23 08:36:54;;;;;;;9.07;4.78;;;17.00;99.90;;;;;;5035489;28;20096;-91
2023/07/23 08:39:20;;;;;;;9.48;4.72;;;17.10;99.90;;;;;;5033396;28;20127;-91
2023/07/23 08:42:08;;;;;;;10.70;5.05;;;17.10;99.90;;;;;;5022794;28;20033;-90
2023/07/23 08:45:20;;;;;;;8.40;4.45;;;17.10;99.90;;;;;;5017181;28;20021;-92
2023/07/23 08:47:47;;;;;;;7.53;4.45;;;17.20;99.90;;;;;;5034423;28;20437;-90
2023/07/23 08:50:14;;;;;;;9.05;4.47;;;17.20;99.90;;;;;;5030902;28;20068;-90
2023/07/23 08:52:45;;;;;;;7.97;4.25;;;17.20;99.90;;;;;;5023607;28;20040;-88
2023/07/23 08:55:11;;;;;;;5.63;3.63;;;17.30;99.90;;;;;;5017925;28;20029;-90
2023/07/23 08:57:38;;;;;;;6.68;4.18;;;17.40;99.90;;;;;;5035290;28;20045;-90
2023/07/23 09:00:06;;;;;;;6.45;3.25;;;17.40;99.90;;;;;;5035245;28;20025;-89
2023/07/23 09:02:34;;;;;;;7.72;4.18;;;17.50;99.90;;;;;;5031050;28;20025;-90
2023/07/23 09:04:59;;;;;;;5.72;3.33;;;17.50;99.90;;;;;;5034282;28;20021;-90
2023/07/23 09:07:25;;;;;;;4.05;3.00;;;17.60;99.90;;;;;;5031042;28;20037;-90
2023/07/23 09:09:51;;;;;;;4.00;2.75;;;17.50;99.90;;;;;;5031834;28;20063;-91
2023/07/23 09:12:17;;;;;;;4.72;2.65;;;17.50;99.90;;;;;;5036244;28;20064;-91
2023/07/23 09:14:44;;;;;;;6.68;2.97;;;17.60;99.90;;;;;;5033702;28;20036;-88
2023/07/23 09:17:18;;;;;;;5.82;2.70;;;17.70;99.90;;;;;;5034789;28;20033;-90
2023/07/23 09:19:43;;;;;;;5.15;3.17;;;17.70;99.90;;;;;;5028279;28;20112;-89
2023/07/23 09:22:09;;;;;;;4.15;2.50;;;17.80;99.90;;;;;;5019108;28;20141;-90
2023/07/23 09:24:34;;;;;;;5.75;2.70;;;17.80;99.90;;;;;;5022442;28;20021;-90
2023/07/23 09:27:02;;;;;;;3.80;2.60;;;17.80;99.90;;;;;;5035483;28;20036;-91
2023/07/23 09:29:35;;;;;;;5.22;2.42;;;17.70;99.90;;;;;;5035710;28;20025;-89
2023/07/23 09:32:01;;;;;;;3.97;2.45;;;17.70;99.90;;;;;;5029952;28;20078;-90
2023/07/23 09:34:26;;;;;;;3.75;2.17;;;17.80;99.90;;;;;;5029484;28;20025;-90
2023/07/23 09:36:55;;;;;;;3.03;1.88;;;17.70;99.90;;;;;;5033108;28;20021;-91
2023/07/23 09:39:27;;;;;;;3.83;2.17;;;17.70;99.90;;;;;;5047003;28;20112;-89
2023/07/23 09:42:03;;;;;;;4.25;2.38;;;17.70;99.90;;;;;;5025906;28;20084;-92
2023/07/23 09:44:29;;;;;;;3.50;2.00;;;17.70;99.90;;;;;;5029497;28;20082;-91
2023/07/23 09:46:58;;;;;;;4.20;1.80;;;17.70;99.90;;;;;;5024417;28;20033;-91
2023/07/23 09:49:29;;;;;;;3.47;1.63;;;17.70;99.90;;;;;;5023587;28;20025;-91
2023/07/23 09:51:55;;;;;;;2.88;1.38;;;17.70;99.90;;;;;;5031788;28;20029;-92
2023/07/23 09:54:21;;;;;;;5.50;1.67;;;17.70;99.90;;;;;;5036495;28;20117;-92
2023/07/23 09:56:49;;;;;;;2.42;1.27;;;17.80;99.90;;;;;;5032324;28;20091;-91
2023/07/23 09:59:15;;;;;;;2.28;1.20;;;17.80;99.90;;;;;;5032103;28;20519;-92
2023/07/23 10:01:40;;;;;;;2.25;1.17;;;17.90;99.90;;;;;;5027874;28;20029;-93
2023/07/23 10:04:08;;;;;;;2.13;0.90;;;17.90;99.90;;;;;;5031088;28;20021;-93
2023/07/23 10:06:33;;;;;;;2.85;1.55;;;17.80;99.90;;;;;;5031838;28;20060;-93
2023/07/23 10:09:02;;;;;;;3.83;1.25;;;17.90;99.90;;;;;;5030035;28;20053;-91
2023/07/23 10:11:27;;;;;;;3.72;1.10;;;18.00;99.90;;;;;;5027316;28;20028;-92
2023/07/23 10:13:53;;;;;;;1.88;1.10;;;18.10;99.90;;;;;;5029730;28;20567;-91
2023/07/23 10:16:27;;;;;;;2.20;1.20;;;18.10;99.90;;;;;;5031816;28;20032;-92
2023/07/23 10:18:57;;;;;;;2.13;1.02;;;18.10;99.90;;;;;;5028659;28;21061;-92
2023/07/23 10:21:23;;;;;;;2.10;0.80;;;18.10;99.90;;;;;;5030553;28;20032;-93
2023/07/23 10:23:57;;;;;;;1.80;0.90;;;18.00;99.90;;;;;;5030545;28;20497;-94
2023/07/23 10:26:28;;;;;;;3.25;1.05;;;18.00;99.90;;;;;;5037722;28;20029;-96
2023/07/23 10:29:10;;;;;;;2.65;1.00;;;17.90;99.90;;;;;;5035363;28;20021;-94
2023/07/23 10:31:36;;;;;;;2.25;0.90;;;17.80;99.90;;;;;;5038297;28;20029;-94
2023/07/23 10:34:22;;;;;;;2.50;0.90;;;17.70;99.90;;;;;;5035586;28;20075;-93
2023/07/23 10:37:21;;;;;;;1.70;0.85;;;17.60;99.90;;;;;;5036264;28;20473;-91
2023/07/23 10:39:52;;;;;;;2.13;1.00;;;17.50;99.90;;;;;;5036843;28;20021;-93
2023/07/23 10:42:41;;;;;;;2.22;1.20;;;17.50;99.90;;;;;;5036294;28;20021;-91
2023/07/23 10:45:28;;;;;;;3.15;1.25;;;17.40;99.90;;;;;;5034533;28;20037;-93
2023/07/23 10:47:57;;;;;;;3.08;1.60;;;17.40;99.90;;;;;;5036116;28;20385;-92
2023/07/23 10:50:24;;;;;;;2.55;1.20;;;17.40;99.90;;;;;;5033842;28;20033;-92
2023/07/23 10:52:52;;;;;;;2.78;1.58;;;17.40;99.90;;;;;;5036074;28;20033;-92
2023/07/23 10:55:39;;;;;;;3.72;2.08;;;17.40;99.90;;;;;;5033868;28;20067;-92
2023/07/23 10:58:18;;;;;;;4.88;1.40;;;17.50;99.90;;;;;;5032102;28;20025;-92
2023/07/23 11:00:45;;;;;;;3.72;1.90;;;17.30;99.90;;;;;;5053055;28;20064;-91
2023/07/23 11:03:18;;;;;;;2.55;1.52;;;17.40;99.90;;;;;;5037075;28;20073;-91
2023/07/23 11:05:44;;;;;;;3.58;1.63;;;17.40;99.90;;;;;;5036645;28;20074;-90
2023/07/23 11:08:23;;;;;;;3.10;1.95;;;17.40;99.90;;;;;;5034720;28;20040;-92
2023/07/23 11:10:59;;;;;;;2.83;1.80;;;17.40;99.90;;;;;;5034819;28;20395;-93
2023/07/23 11:13:31;;;;;;;2.50;1.92;;;17.50;99.90;;;;;;5032258;28;20120;-93
2023/07/23 11:15:57;;;;;;;4.00;1.92;;;17.50;99.90;;;;;;5016284;28;20128;-92
2023/07/23 11:18:23;;;;;;;2.95;1.38;;;17.60;99.90;;;;;;5035055;28;20036;-91
2023/07/23 11:20:52;;;;;;;3.40;2.15;;;17.70;99.90;;;;;;5036337;28;20036;-91
2023/07/23 11:23:20;;;;;;;3.35;1.90;;;17.80;99.90;;;;;;5052532;28;20045;-92
2023/07/23 11:25:47;;;;;;;4.30;2.72;;;18.10;99.90;;;;;;5042590;28;20032;-90
2023/07/23 11:28:15;;;;;;;3.55;2.35;;;18.30;99.90;;;;;;5030958;28;20025;-90
2023/07/23 11:30:41;;;;;;;4.78;2.58;;;18.50;99.90;;;;;;5034296;28;20025;-89
2023/07/23 11:33:08;;;;;;;3.35;2.38;;;18.60;99.90;;;;;;5034695;28;20041;-92
2023/07/23 11:35:34;;;;;;;4.97;3.28;;;18.80;99.90;;;;;;5035365;28;20106;-91
2023/07/23 11:38:03;;;;;;;3.63;2.72;;;19.00;99.90;;;;;;5051591;28;20071;-90
2023/07/23 11:40:29;;;;;;;3.13;2.50;;;19.20;99.90;;;;;;5051253;28;20037;-90
2023/07/23 11:42:55;;;;;;;6.68;3.17;;;19.20;99.90;;;;;;5034919;28;20594;-91
2023/07/23 11:45:21;;;;;;;4.05;3.25;;;19.40;99.90;;;;;;5032299;28;20106;-91
2023/07/23 11:47:56;;;;;;;4.05;2.72;;;19.60;99.90;;;;;;5035334;28;20104;-92
2023/07/23 11:50:24;;;;;;;4.60;3.53;;;19.80;99.90;;;;;;5026152;28;20446;-91
2023/07/23 11:52:51;;;;;;;4.55;3.08;;;20.00;99.90;;;;;;5030741;28;20033;-93
2023/07/23 11:55:21;;;;;;;3.28;2.50;;;20.20;99.90;;;;;;5032583;28;20013;-92
2023/07/23 11:57:55;;;;;;;4.03;2.92;;;20.40;99.90;;;;;;5036740;28;20428;-91
2023/07/23 12:00:46;;;;;;;5.75;2.88;;;20.60;99.90;;;;;;5036057;28;20025;-93
2023/07/23 12:03:11;;;;;;;3.90;2.40;;;20.80;99.90;;;;;;5024704;28;20481;-94
2023/07/23 12:05:41;;;;;;;4.05;2.80;;;20.80;99.90;;;;;;5053061;28;20047;-91
2023/07/23 12:08:06;;;;;;;4.53;2.83;;;20.80;99.90;;;;;;5051818;28;20025;-92
2023/07/23 12:10:33;;;;;;;3.85;2.65;;;20.70;99.90;;;;;;5034626;28;20035;-93
2023/07/23 12:13:10;;;;;;;4.85;2.70;;;20.60;99.90;;;;;;5034654;28;20053;-92
2023/07/23 12:15:40;;;;;;;4.28;2.80;;;20.50;99.90;;;;;;5034180;28;20481;-92
2023/07/23 12:18:09;;;;;;;3.90;2.25;;;20.50;99.90;;;;;;5034295;28;20037;-91
2023/07/23 12:20:34;;;;;;;4.22;2.22;;;20.60;99.90;;;;;;5034454;28;20028;-90
2023/07/23 12:23:01;;;;;;;5.70;2.70;;;20.70;99.90;;;;;;5033563;28;20392;-92
2023/07/23 12:25:27;;;;;;;3.72;2.90;;;21.00;99.90;;;;;;5034616;28;20091;-91
2023/07/23 12:27:53;;;;;;;7.07;2.45;;;21.30;99.90;;;;;;5034149;28;20473;-91
2023/07/23 12:30:19;;;;;;;3.63;2.47;;;21.30;99.90;;;;;;5034518;28;20488;-93
2023/07/23 12:32:46;;;;;;;3.60;2.88;;;21.40;99.90;;;;;;5034622;28;20037;-92
2023/07/23 12:35:12;;;;;;;3.75;3.00;;;21.20;99.90;;;;;;5033873;28;20056;-92
2023/07/23 12:37:37;;;;;;;3.25;2.55;;;21.10;99.90;;;;;;5034711;28;20029;-92
2023/07/23 12:40:04;;;;;;;4.07;2.63;;;21.00;99.90;;;;;;5031352;28;20033;-92
2023/07/23 12:42:31;;;;;;;4.82;2.58;;;21.00;99.90;;;;;;5031295;28;20033;-93